sensor_id;sensor_type;location;lat;lon;timestamp;P1;durP1;ratioP1;P2;durP2;ratioP2
4323;SDS011;2175;51.018;6.994;2023-05-29T00:02:07;8.93;;;4.50;;
4323;SDS011;2175;51.018;6.994;2023-05-29T00:04:33;12.40;;;5.20;;
4323;SDS011;2175;51.018;6.994;2023-05-29T00:06:58;9.50;;;4.70;;
4323;SDS011;2175;51.018;6.994;2023-05-29T00:09:24;8.80;;;5.10;;
4323;SDS011;2175;51.018;6.994;2023-05-29T00:11:50;9.70;;;4.90;;
4323;SDS011;2175;51.018;6.994;2023-05-29T00:14:17;10.03;;;5.13;;
4323;SDS011;2175;51.018;6.994;2023-05-29T00:16:47;14.73;;;5.10;;
4323;SDS011;2175;51.018;6.994;2023-05-29T00:19:14;9.03;;;4.83;;
4323;SDS011;2175;51.018;6.994;2023-05-29T00:21:41;7.73;;;4.43;;
4323;SDS011;2175;51.018;6.994;2023-05-29T00:24:07;10.37;;;4.83;;
4323;SDS011;2175;51.018;6.994;2023-05-29T00:26:33;9.70;;;4.80;;
4323;SDS011;2175;51.018;6.994;2023-05-29T00:28:59;8.97;;;4.67;;
4323;SDS011;2175;51.018;6.994;2023-05-29T00:31:25;11.43;;;5.20;;
4323;SDS011;2175;51.018;6.994;2023-05-29T00:33:51;10.63;;;4.40;;
4323;SDS011;2175;51.018;6.994;2023-05-29T00:36:16;12.50;;;4.73;;
4323;SDS011;2175;51.018;6.994;2023-05-29T00:38:43;8.23;;;4.10;;
4323;SDS011;2175;51.018;6.994;2023-05-29T00:41:13;12.03;;;5.20;;
4323;SDS011;2175;51.018;6.994;2023-05-29T00:43:40;7.70;;;4.73;;
4323;SDS011;2175;51.018;6.994;2023-05-29T00:46:06;8.30;;;4.67;;
4323;SDS011;2175;51.018;6.994;2023-05-29T00:48:38;9.17;;;4.70;;
4323;SDS011;2175;51.018;6.994;2023-05-29T00:51:08;11.63;;;5.80;;
4323;SDS011;2175;51.018;6.994;2023-05-29T00:53:35;11.90;;;5.00;;
4323;SDS011;2175;51.018;6.994;2023-05-29T00:56:02;10.23;;;4.90;;
4323;SDS011;2175;51.018;6.994;2023-05-29T00:58:29;7.07;;;4.30;;
4323;SDS011;2175;51.018;6.994;2023-05-29T01:00:55;11.77;;;4.97;;
4323;SDS011;2175;51.018;6.994;2023-05-29T01:03:21;8.53;;;4.50;;
4323;SDS011;2175;51.018;6.994;2023-05-29T01:05:48;8.27;;;4.67;;
4323;SDS011;2175;51.018;6.994;2023-05-29T01:08:14;9.80;;;4.20;;
4323;SDS011;2175;51.018;6.994;2023-05-29T01:10:40;9.23;;;4.93;;
4323;SDS011;2175;51.018;6.994;2023-05-29T01:19:05;8.33;;;4.80;;
4323;SDS011;2175;51.018;6.994;2023-05-29T01:27:36;7.10;;;4.10;;
4323;SDS011;2175;51.018;6.994;2023-05-29T01:30:05;9.83;;;5.07;;
4323;SDS011;2175;51.018;6.994;2023-05-29T01:32:32;10.73;;;4.80;;
4323;SDS011;2175;51.018;6.994;2023-05-29T01:37:33;8.53;;;5.00;;
4323;SDS011;2175;51.018;6.994;2023-05-29T01:39:59;9.77;;;4.50;;
4323;SDS011;2175;51.018;6.994;2023-05-29T01:42:26;10.40;;;4.80;;
4323;SDS011;2175;51.018;6.994;2023-05-29T01:44:54;8.37;;;5.13;;
4323;SDS011;2175;51.018;6.994;2023-05-29T01:47:21;9.63;;;4.70;;
4323;SDS011;2175;51.018;6.994;2023-05-29T01:49:48;9.30;;;5.17;;
4323;SDS011;2175;51.018;6.994;2023-05-29T01:52:16;8.87;;;4.33;;
4323;SDS011;2175;51.018;6.994;2023-05-29T01:54:42;7.90;;;4.90;;
4323;SDS011;2175;51.018;6.994;2023-05-29T01:57:08;13.93;;;4.70;;
4323;SDS011;2175;51.018;6.994;2023-05-29T01:59:35;11.23;;;5.20;;
4323;SDS011;2175;51.018;6.994;2023-05-29T02:02:06;7.03;;;4.60;;
4323;SDS011;2175;51.018;6.994;2023-05-29T02:04:35;9.53;;;4.87;;
4323;SDS011;2175;51.018;6.994;2023-05-29T02:07:00;9.77;;;4.70;;
4323;SDS011;2175;51.018;6.994;2023-05-29T02:09:27;9.83;;;4.23;;
4323;SDS011;2175;51.018;6.994;2023-05-29T02:11:53;10.80;;;5.00;;
4323;SDS011;2175;51.018;6.994;2023-05-29T02:14:18;8.70;;;5.60;;
4323;SDS011;2175;51.018;6.994;2023-05-29T02:16:44;10.87;;;4.83;;
4323;SDS011;2175;51.018;6.994;2023-05-29T02:19:10;10.67;;;4.93;;
4323;SDS011;2175;51.018;6.994;2023-05-29T02:21:39;16.70;;;5.20;;
4323;SDS011;2175;51.018;6.994;2023-05-29T02:24:07;11.43;;;4.77;;
4323;SDS011;2175;51.018;6.994;2023-05-29T02:26:33;10.00;;;4.50;;
4323;SDS011;2175;51.018;6.994;2023-05-29T02:29:01;8.83;;;4.57;;
4323;SDS011;2175;51.018;6.994;2023-05-29T02:31:27;9.17;;;4.57;;
4323;SDS011;2175;51.018;6.994;2023-05-29T02:33:53;9.93;;;5.07;;
4323;SDS011;2175;51.018;6.994;2023-05-29T02:36:18;9.50;;;4.80;;
4323;SDS011;2175;51.018;6.994;2023-05-29T02:38:44;7.93;;;4.87;;
4323;SDS011;2175;51.018;6.994;2023-05-29T02:41:10;10.03;;;5.03;;
4323;SDS011;2175;51.018;6.994;2023-05-29T02:43:35;7.77;;;4.43;;
4323;SDS011;2175;51.018;6.994;2023-05-29T02:46:01;9.20;;;4.90;;
4323;SDS011;2175;51.018;6.994;2023-05-29T02:48:26;10.57;;;5.23;;
4323;SDS011;2175;51.018;6.994;2023-05-29T02:50:54;9.73;;;4.93;;
4323;SDS011;2175;51.018;6.994;2023-05-29T02:53:19;8.30;;;4.77;;
4323;SDS011;2175;51.018;6.994;2023-05-29T02:55:45;8.77;;;5.10;;
4323;SDS011;2175;51.018;6.994;2023-05-29T02:58:11;9.40;;;5.10;;
4323;SDS011;2175;51.018;6.994;2023-05-29T03:00:37;8.07;;;5.50;;
4323;SDS011;2175;51.018;6.994;2023-05-29T03:03:03;8.97;;;4.93;;
4323;SDS011;2175;51.018;6.994;2023-05-29T03:05:29;9.50;;;5.20;;
4323;SDS011;2175;51.018;6.994;2023-05-29T03:07:55;10.20;;;4.67;;
4323;SDS011;2175;51.018;6.994;2023-05-29T03:10:21;11.33;;;5.00;;
4323;SDS011;2175;51.018;6.994;2023-05-29T03:12:47;9.07;;;5.50;;
4323;SDS011;2175;51.018;6.994;2023-05-29T03:15:12;10.40;;;5.20;;
4323;SDS011;2175;51.018;6.994;2023-05-29T03:17:39;13.73;;;5.90;;
4323;SDS011;2175;51.018;6.994;2023-05-29T03:20:05;17.10;;;5.83;;
4323;SDS011;2175;51.018;6.994;2023-05-29T03:22:31;12.80;;;5.37;;
4323;SDS011;2175;51.018;6.994;2023-05-29T03:24:57;22.97;;;5.33;;
4323;SDS011;2175;51.018;6.994;2023-05-29T03:27:23;12.30;;;5.40;;
4323;SDS011;2175;51.018;6.994;2023-05-29T03:29:48;9.97;;;4.73;;
4323;SDS011;2175;51.018;6.994;2023-05-29T03:32:14;15.80;;;5.43;;
4323;SDS011;2175;51.018;6.994;2023-05-29T03:34:40;12.67;;;5.23;;
4323;SDS011;2175;51.018;6.994;2023-05-29T03:37:05;16.00;;;4.90;;
4323;SDS011;2175;51.018;6.994;2023-05-29T03:39:31;11.40;;;5.30;;
4323;SDS011;2175;51.018;6.994;2023-05-29T03:41:56;13.17;;;5.33;;
4323;SDS011;2175;51.018;6.994;2023-05-29T03:44:22;16.00;;;5.63;;
4323;SDS011;2175;51.018;6.994;2023-05-29T03:46:48;16.43;;;6.47;;
4323;SDS011;2175;51.018;6.994;2023-05-29T03:49:15;15.70;;;5.90;;
4323;SDS011;2175;51.018;6.994;2023-05-29T03:51:40;14.80;;;5.50;;
4323;SDS011;2175;51.018;6.994;2023-05-29T03:54:06;17.63;;;5.13;;
4323;SDS011;2175;51.018;6.994;2023-05-29T03:56:31;14.67;;;5.73;;
4323;SDS011;2175;51.018;6.994;2023-05-29T03:58:57;14.60;;;5.67;;
4323;SDS011;2175;51.018;6.994;2023-05-29T04:01:23;22.60;;;6.00;;
4323;SDS011;2175;51.018;6.994;2023-05-29T04:03:48;13.40;;;5.07;;
4323;SDS011;2175;51.018;6.994;2023-05-29T04:06:14;17.60;;;6.27;;
4323;SDS011;2175;51.018;6.994;2023-05-29T04:08:41;13.30;;;5.53;;
4323;SDS011;2175;51.018;6.994;2023-05-29T04:11:06;15.53;;;5.70;;
4323;SDS011;2175;51.018;6.994;2023-05-29T04:13:32;14.70;;;5.40;;
4323;SDS011;2175;51.018;6.994;2023-05-29T04:15:57;20.10;;;5.73;;
4323;SDS011;2175;51.018;6.994;2023-05-29T04:18:23;15.90;;;6.03;;
4323;SDS011;2175;51.018;6.994;2023-05-29T04:20:50;23.00;;;6.40;;
4323;SDS011;2175;51.018;6.994;2023-05-29T04:23:16;21.40;;;7.70;;
4323;SDS011;2175;51.018;6.994;2023-05-29T04:25:41;16.77;;;6.30;;
4323;SDS011;2175;51.018;6.994;2023-05-29T04:28:08;15.57;;;6.10;;
4323;SDS011;2175;51.018;6.994;2023-05-29T04:30:35;33.27;;;7.17;;
4323;SDS011;2175;51.018;6.994;2023-05-29T04:33:01;24.60;;;7.20;;
4323;SDS011;2175;51.018;6.994;2023-05-29T04:35:28;18.73;;;6.83;;
4323;SDS011;2175;51.018;6.994;2023-05-29T04:37:53;21.20;;;7.77;;
4323;SDS011;2175;51.018;6.994;2023-05-29T04:40:21;23.47;;;8.37;;
4323;SDS011;2175;51.018;6.994;2023-05-29T04:42:47;23.53;;;6.70;;
4323;SDS011;2175;51.018;6.994;2023-05-29T04:45:13;20.97;;;6.97;;
4323;SDS011;2175;51.018;6.994;2023-05-29T04:47:39;18.47;;;6.97;;
4323;SDS011;2175;51.018;6.994;2023-05-29T04:50:12;16.63;;;6.93;;
4323;SDS011;2175;51.018;6.994;2023-05-29T04:52:38;17.37;;;6.97;;
4323;SDS011;2175;51.018;6.994;2023-05-29T04:55:04;20.10;;;6.83;;
4323;SDS011;2175;51.018;6.994;2023-05-29T04:57:30;21.53;;;7.20;;
4323;SDS011;2175;51.018;6.994;2023-05-29T04:59:56;15.10;;;6.70;;
4323;SDS011;2175;51.018;6.994;2023-05-29T05:02:21;23.63;;;7.43;;
4323;SDS011;2175;51.018;6.994;2023-05-29T05:04:47;21.50;;;7.23;;
4323;SDS011;2175;51.018;6.994;2023-05-29T05:07:13;23.53;;;6.53;;
4323;SDS011;2175;51.018;6.994;2023-05-29T05:09:40;17.27;;;6.20;;
4323;SDS011;2175;51.018;6.994;2023-05-29T05:12:06;15.87;;;5.73;;
4323;SDS011;2175;51.018;6.994;2023-05-29T05:14:32;22.57;;;7.20;;
4323;SDS011;2175;51.018;6.994;2023-05-29T05:16:58;17.43;;;7.23;;
4323;SDS011;2175;51.018;6.994;2023-05-29T05:19:23;15.70;;;5.97;;
4323;SDS011;2175;51.018;6.994;2023-05-29T05:21:49;13.77;;;6.30;;
4323;SDS011;2175;51.018;6.994;2023-05-29T05:24:14;13.70;;;6.17;;
4323;SDS011;2175;51.018;6.994;2023-05-29T05:26:40;19.30;;;6.60;;
4323;SDS011;2175;51.018;6.994;2023-05-29T05:29:05;21.37;;;6.13;;
4323;SDS011;2175;51.018;6.994;2023-05-29T05:31:31;18.13;;;6.30;;
4323;SDS011;2175;51.018;6.994;2023-05-29T05:33:58;19.30;;;5.90;;
4323;SDS011;2175;51.018;6.994;2023-05-29T05:36:23;13.30;;;5.30;;
4323;SDS011;2175;51.018;6.994;2023-05-29T05:38:49;18.03;;;6.10;;
4323;SDS011;2175;51.018;6.994;2023-05-29T05:41:15;27.23;;;6.40;;
4323;SDS011;2175;51.018;6.994;2023-05-29T05:43:40;12.93;;;5.67;;
4323;SDS011;2175;51.018;6.994;2023-05-29T05:46:06;21.03;;;6.30;;
4323;SDS011;2175;51.018;6.994;2023-05-29T05:48:31;18.70;;;6.60;;
4323;SDS011;2175;51.018;6.994;2023-05-29T05:50:57;12.43;;;4.53;;
4323;SDS011;2175;51.018;6.994;2023-05-29T05:53:23;13.60;;;5.17;;
4323;SDS011;2175;51.018;6.994;2023-05-29T05:55:49;16.43;;;4.80;;
4323;SDS011;2175;51.018;6.994;2023-05-29T05:58:14;21.73;;;5.77;;
4323;SDS011;2175;51.018;6.994;2023-05-29T06:00:40;21.70;;;5.13;;
4323;SDS011;2175;51.018;6.994;2023-05-29T06:03:07;18.10;;;5.93;;
4323;SDS011;2175;51.018;6.994;2023-05-29T06:05:33;15.53;;;4.73;;
4323;SDS011;2175;51.018;6.994;2023-05-29T06:08:01;15.80;;;5.40;;
4323;SDS011;2175;51.018;6.994;2023-05-29T06:10:27;18.13;;;5.67;;
4323;SDS011;2175;51.018;6.994;2023-05-29T06:12:52;18.20;;;5.23;;
4323;SDS011;2175;51.018;6.994;2023-05-29T06:15:18;16.77;;;5.53;;
4323;SDS011;2175;51.018;6.994;2023-05-29T06:17:44;18.03;;;5.27;;
4323;SDS011;2175;51.018;6.994;2023-05-29T06:20:09;16.73;;;5.37;;
4323;SDS011;2175;51.018;6.994;2023-05-29T06:22:36;22.63;;;6.20;;
4323;SDS011;2175;51.018;6.994;2023-05-29T06:25:02;17.80;;;5.07;;
4323;SDS011;2175;51.018;6.994;2023-05-29T06:27:28;17.60;;;5.73;;
4323;SDS011;2175;51.018;6.994;2023-05-29T06:29:54;16.03;;;4.80;;
4323;SDS011;2175;51.018;6.994;2023-05-29T06:32:20;18.00;;;4.83;;
4323;SDS011;2175;51.018;6.994;2023-05-29T06:34:46;15.87;;;5.10;;
4323;SDS011;2175;51.018;6.994;2023-05-29T06:37:15;17.73;;;5.47;;
4323;SDS011;2175;51.018;6.994;2023-05-29T06:39:43;15.93;;;4.80;;
4323;SDS011;2175;51.018;6.994;2023-05-29T06:42:09;14.10;;;5.17;;
4323;SDS011;2175;51.018;6.994;2023-05-29T06:44:35;17.67;;;5.33;;
4323;SDS011;2175;51.018;6.994;2023-05-29T06:47:01;13.80;;;5.13;;
4323;SDS011;2175;51.018;6.994;2023-05-29T06:49:26;17.03;;;5.30;;
4323;SDS011;2175;51.018;6.994;2023-05-29T06:51:52;17.37;;;6.27;;
4323;SDS011;2175;51.018;6.994;2023-05-29T06:54:18;23.93;;;6.13;;
4323;SDS011;2175;51.018;6.994;2023-05-29T06:56:43;21.17;;;6.77;;
4323;SDS011;2175;51.018;6.994;2023-05-29T06:59:09;15.53;;;5.23;;
4323;SDS011;2175;51.018;6.994;2023-05-29T07:01:34;22.23;;;5.83;;
4323;SDS011;2175;51.018;6.994;2023-05-29T07:04:00;17.53;;;5.77;;
4323;SDS011;2175;51.018;6.994;2023-05-29T07:06:26;15.20;;;5.10;;
4323;SDS011;2175;51.018;6.994;2023-05-29T07:08:51;19.00;;;6.30;;
4323;SDS011;2175;51.018;6.994;2023-05-29T07:11:17;15.57;;;5.93;;
4323;SDS011;2175;51.018;6.994;2023-05-29T07:13:43;15.27;;;6.03;;
4323;SDS011;2175;51.018;6.994;2023-05-29T07:16:08;20.53;;;5.63;;
4323;SDS011;2175;51.018;6.994;2023-05-29T07:18:34;14.57;;;5.37;;
4323;SDS011;2175;51.018;6.994;2023-05-29T07:21:00;13.47;;;5.40;;
4323;SDS011;2175;51.018;6.994;2023-05-29T07:23:26;17.57;;;5.03;;
4323;SDS011;2175;51.018;6.994;2023-05-29T07:25:51;17.37;;;5.67;;
4323;SDS011;2175;51.018;6.994;2023-05-29T07:28:18;22.73;;;6.40;;
4323;SDS011;2175;51.018;6.994;2023-05-29T07:30:44;27.30;;;5.93;;
4323;SDS011;2175;51.018;6.994;2023-05-29T07:33:09;16.33;;;5.37;;
4323;SDS011;2175;51.018;6.994;2023-05-29T07:38:07;18.83;;;5.97;;
4323;SDS011;2175;51.018;6.994;2023-05-29T07:40:32;18.43;;;5.97;;
4323;SDS011;2175;51.018;6.994;2023-05-29T07:42:58;16.70;;;4.60;;
4323;SDS011;2175;51.018;6.994;2023-05-29T07:45:23;17.83;;;5.60;;
4323;SDS011;2175;51.018;6.994;2023-05-29T07:47:49;19.97;;;5.33;;
4323;SDS011;2175;51.018;6.994;2023-05-29T07:50:15;14.27;;;5.63;;
4323;SDS011;2175;51.018;6.994;2023-05-29T07:52:42;17.27;;;5.57;;
4323;SDS011;2175;51.018;6.994;2023-05-29T07:55:08;18.13;;;5.50;;
4323;SDS011;2175;51.018;6.994;2023-05-29T07:57:34;20.47;;;5.50;;
4323;SDS011;2175;51.018;6.994;2023-05-29T08:00:00;12.80;;;4.90;;
4323;SDS011;2175;51.018;6.994;2023-05-29T08:02:33;14.13;;;5.33;;
4323;SDS011;2175;51.018;6.994;2023-05-29T08:04:59;15.10;;;5.37;;
4323;SDS011;2175;51.018;6.994;2023-05-29T08:07:25;12.40;;;5.00;;
4323;SDS011;2175;51.018;6.994;2023-05-29T08:09:53;21.87;;;6.60;;
4323;SDS011;2175;51.018;6.994;2023-05-29T08:12:19;14.00;;;5.17;;
4323;SDS011;2175;51.018;6.994;2023-05-29T08:14:45;15.50;;;5.53;;
4323;SDS011;2175;51.018;6.994;2023-05-29T08:17:11;14.30;;;5.10;;
4323;SDS011;2175;51.018;6.994;2023-05-29T08:19:36;11.20;;;4.87;;
4323;SDS011;2175;51.018;6.994;2023-05-29T08:22:02;12.30;;;5.50;;
4323;SDS011;2175;51.018;6.994;2023-05-29T08:24:28;15.30;;;5.43;;
4323;SDS011;2175;51.018;6.994;2023-05-29T08:26:53;11.37;;;4.77;;
4323;SDS011;2175;51.018;6.994;2023-05-29T08:29:19;17.53;;;4.90;;
4323;SDS011;2175;51.018;6.994;2023-05-29T08:31:45;15.80;;;5.57;;
4323;SDS011;2175;51.018;6.994;2023-05-29T08:34:11;13.67;;;4.97;;
4323;SDS011;2175;51.018;6.994;2023-05-29T08:36:36;13.70;;;4.87;;
4323;SDS011;2175;51.018;6.994;2023-05-29T08:39:02;19.03;;;4.90;;
4323;SDS011;2175;51.018;6.994;2023-05-29T08:41:31;15.20;;;5.70;;
4323;SDS011;2175;51.018;6.994;2023-05-29T08:44:18;13.50;;;5.70;;
4323;SDS011;2175;51.018;6.994;2023-05-29T08:46:47;15.10;;;5.10;;
4323;SDS011;2175;51.018;6.994;2023-05-29T08:49:21;14.63;;;5.13;;
4323;SDS011;2175;51.018;6.994;2023-05-29T08:54:35;13.63;;;5.20;;
4323;SDS011;2175;51.018;6.994;2023-05-29T08:57:01;14.90;;;5.40;;
4323;SDS011;2175;51.018;6.994;2023-05-29T08:59:29;16.93;;;5.30;;
4323;SDS011;2175;51.018;6.994;2023-05-29T09:01:55;12.23;;;4.63;;
4323;SDS011;2175;51.018;6.994;2023-05-29T09:04:21;12.30;;;4.57;;
4323;SDS011;2175;51.018;6.994;2023-05-29T09:06:48;18.67;;;5.53;;
4323;SDS011;2175;51.018;6.994;2023-05-29T09:09:15;9.77;;;3.90;;
4323;SDS011;2175;51.018;6.994;2023-05-29T09:11:41;11.83;;;4.60;;
4323;SDS011;2175;51.018;6.994;2023-05-29T09:14:11;10.53;;;4.13;;
4323;SDS011;2175;51.018;6.994;2023-05-29T09:16:57;12.67;;;4.50;;
4323;SDS011;2175;51.018;6.994;2023-05-29T09:19:22;13.47;;;5.30;;
4323;SDS011;2175;51.018;6.994;2023-05-29T09:21:48;13.60;;;4.83;;
4323;SDS011;2175;51.018;6.994;2023-05-29T09:24:13;15.60;;;4.60;;
4323;SDS011;2175;51.018;6.994;2023-05-29T09:26:39;16.13;;;5.43;;
4323;SDS011;2175;51.018;6.994;2023-05-29T09:29:15;14.10;;;5.20;;
4323;SDS011;2175;51.018;6.994;2023-05-29T09:31:47;13.90;;;4.80;;
4323;SDS011;2175;51.018;6.994;2023-05-29T09:34:13;13.50;;;3.97;;
4323;SDS011;2175;51.018;6.994;2023-05-29T09:36:39;15.40;;;4.40;;
4323;SDS011;2175;51.018;6.994;2023-05-29T09:39:04;13.57;;;5.00;;
4323;SDS011;2175;51.018;6.994;2023-05-29T09:41:34;13.07;;;5.10;;
4323;SDS011;2175;51.018;6.994;2023-05-29T09:44:06;20.30;;;5.47;;
4323;SDS011;2175;51.018;6.994;2023-05-29T09:46:35;14.00;;;5.63;;
4323;SDS011;2175;51.018;6.994;2023-05-29T09:49:01;13.80;;;4.83;;
4323;SDS011;2175;51.018;6.994;2023-05-29T09:51:30;13.30;;;4.90;;
4323;SDS011;2175;51.018;6.994;2023-05-29T09:53:56;13.43;;;5.30;;
4323;SDS011;2175;51.018;6.994;2023-05-29T09:56:26;19.63;;;6.57;;
4323;SDS011;2175;51.018;6.994;2023-05-29T09:58:53;13.93;;;5.60;;
4323;SDS011;2175;51.018;6.994;2023-05-29T10:01:21;15.00;;;5.27;;
4323;SDS011;2175;51.018;6.994;2023-05-29T10:03:48;12.40;;;5.00;;
4323;SDS011;2175;51.018;6.994;2023-05-29T10:06:16;14.23;;;4.57;;
4323;SDS011;2175;51.018;6.994;2023-05-29T10:08:45;18.57;;;4.93;;
4323;SDS011;2175;51.018;6.994;2023-05-29T10:11:14;17.07;;;4.80;;
4323;SDS011;2175;51.018;6.994;2023-05-29T10:13:48;21.60;;;5.00;;
4323;SDS011;2175;51.018;6.994;2023-05-29T10:16:16;12.10;;;4.60;;
4323;SDS011;2175;51.018;6.994;2023-05-29T10:18:47;14.30;;;5.00;;
4323;SDS011;2175;51.018;6.994;2023-05-29T10:21:19;13.83;;;4.60;;
4323;SDS011;2175;51.018;6.994;2023-05-29T10:23:47;13.83;;;5.00;;
4323;SDS011;2175;51.018;6.994;2023-05-29T10:26:36;12.67;;;5.30;;
4323;SDS011;2175;51.018;6.994;2023-05-29T10:34:29;16.93;;;5.80;;
4323;SDS011;2175;51.018;6.994;2023-05-29T10:37:09;15.23;;;5.80;;
4323;SDS011;2175;51.018;6.994;2023-05-29T10:40:02;13.93;;;4.57;;
4323;SDS011;2175;51.018;6.994;2023-05-29T10:42:49;13.10;;;5.77;;
4323;SDS011;2175;51.018;6.994;2023-05-29T10:50:41;13.67;;;5.20;;
4323;SDS011;2175;51.018;6.994;2023-05-29T10:53:07;13.20;;;5.27;;
4323;SDS011;2175;51.018;6.994;2023-05-29T10:55:37;12.70;;;5.37;;
4323;SDS011;2175;51.018;6.994;2023-05-29T10:58:05;18.17;;;5.80;;
4323;SDS011;2175;51.018;6.994;2023-05-29T11:00:45;11.13;;;5.20;;
4323;SDS011;2175;51.018;6.994;2023-05-29T11:03:15;14.33;;;5.30;;
4323;SDS011;2175;51.018;6.994;2023-05-29T11:08:33;14.70;;;5.30;;
4323;SDS011;2175;51.018;6.994;2023-05-29T11:11:11;15.53;;;5.23;;
4323;SDS011;2175;51.018;6.994;2023-05-29T11:13:38;14.50;;;5.23;;
4323;SDS011;2175;51.018;6.994;2023-05-29T11:18:50;15.17;;;5.77;;
4323;SDS011;2175;51.018;6.994;2023-05-29T11:24:13;12.93;;;4.60;;
4323;SDS011;2175;51.018;6.994;2023-05-29T11:26:47;15.63;;;5.40;;
4323;SDS011;2175;51.018;6.994;2023-05-29T11:29:13;12.73;;;5.40;;
4323;SDS011;2175;51.018;6.994;2023-05-29T11:31:39;17.13;;;5.60;;
4323;SDS011;2175;51.018;6.994;2023-05-29T11:34:09;11.03;;;5.00;;
4323;SDS011;2175;51.018;6.994;2023-05-29T11:36:39;13.73;;;5.60;;
4323;SDS011;2175;51.018;6.994;2023-05-29T11:39:04;14.17;;;4.87;;
4323;SDS011;2175;51.018;6.994;2023-05-29T11:41:30;12.80;;;4.80;;
4323;SDS011;2175;51.018;6.994;2023-05-29T11:44:00;11.63;;;4.87;;
4323;SDS011;2175;51.018;6.994;2023-05-29T11:46:27;16.60;;;5.50;;
4323;SDS011;2175;51.018;6.994;2023-05-29T11:48:55;13.80;;;4.30;;
4323;SDS011;2175;51.018;6.994;2023-05-29T11:51:21;15.37;;;5.00;;
4323;SDS011;2175;51.018;6.994;2023-05-29T11:53:47;13.27;;;5.53;;
4323;SDS011;2175;51.018;6.994;2023-05-29T11:56:13;13.40;;;4.97;;
4323;SDS011;2175;51.018;6.994;2023-05-29T11:58:39;12.60;;;5.23;;
4323;SDS011;2175;51.018;6.994;2023-05-29T12:01:06;11.73;;;4.60;;
4323;SDS011;2175;51.018;6.994;2023-05-29T12:03:39;11.57;;;4.57;;
4323;SDS011;2175;51.018;6.994;2023-05-29T12:06:05;13.53;;;4.70;;
4323;SDS011;2175;51.018;6.994;2023-05-29T12:08:32;11.80;;;4.20;;
4323;SDS011;2175;51.018;6.994;2023-05-29T12:10:58;11.43;;;4.90;;
4323;SDS011;2175;51.018;6.994;2023-05-29T12:13:23;14.87;;;4.40;;
4323;SDS011;2175;51.018;6.994;2023-05-29T12:15:51;15.07;;;5.30;;
4323;SDS011;2175;51.018;6.994;2023-05-29T12:18:19;14.80;;;5.10;;
4323;SDS011;2175;51.018;6.994;2023-05-29T12:20:45;11.10;;;4.20;;
4323;SDS011;2175;51.018;6.994;2023-05-29T12:23:12;15.87;;;5.13;;
4323;SDS011;2175;51.018;6.994;2023-05-29T12:25:39;15.43;;;4.70;;
4323;SDS011;2175;51.018;6.994;2023-05-29T12:28:05;18.13;;;5.27;;
4323;SDS011;2175;51.018;6.994;2023-05-29T12:30:31;12.20;;;5.17;;
4323;SDS011;2175;51.018;6.994;2023-05-29T12:33:02;10.80;;;4.87;;
4323;SDS011;2175;51.018;6.994;2023-05-29T12:35:29;14.90;;;5.10;;
4323;SDS011;2175;51.018;6.994;2023-05-29T12:37:56;12.63;;;4.90;;
4323;SDS011;2175;51.018;6.994;2023-05-29T12:40:29;11.70;;;4.53;;
4323;SDS011;2175;51.018;6.994;2023-05-29T12:42:59;14.83;;;5.13;;
4323;SDS011;2175;51.018;6.994;2023-05-29T12:45:26;11.47;;;4.37;;
4323;SDS011;2175;51.018;6.994;2023-05-29T12:47:54;10.30;;;4.57;;
4323;SDS011;2175;51.018;6.994;2023-05-29T12:50:22;16.50;;;4.50;;
4323;SDS011;2175;51.018;6.994;2023-05-29T12:52:53;10.57;;;4.17;;
4323;SDS011;2175;51.018;6.994;2023-05-29T12:55:20;12.60;;;4.80;;
4323;SDS011;2175;51.018;6.994;2023-05-29T12:57:45;13.60;;;4.83;;
4323;SDS011;2175;51.018;6.994;2023-05-29T13:00:13;11.10;;;4.80;;
4323;SDS011;2175;51.018;6.994;2023-05-29T13:02:39;15.60;;;4.83;;
4323;SDS011;2175;51.018;6.994;2023-05-29T13:05:05;14.43;;;5.00;;
4323;SDS011;2175;51.018;6.994;2023-05-29T13:07:32;16.67;;;5.00;;
4323;SDS011;2175;51.018;6.994;2023-05-29T13:09:59;19.43;;;4.80;;
4323;SDS011;2175;51.018;6.994;2023-05-29T13:12:24;12.77;;;4.87;;
4323;SDS011;2175;51.018;6.994;2023-05-29T13:14:50;15.03;;;4.90;;
4323;SDS011;2175;51.018;6.994;2023-05-29T13:17:16;16.20;;;4.80;;
4323;SDS011;2175;51.018;6.994;2023-05-29T13:19:42;16.47;;;5.07;;
4323;SDS011;2175;51.018;6.994;2023-05-29T13:22:08;12.53;;;4.27;;
4323;SDS011;2175;51.018;6.994;2023-05-29T13:24:34;15.10;;;4.60;;
4323;SDS011;2175;51.018;6.994;2023-05-29T13:26:59;13.93;;;4.50;;
4323;SDS011;2175;51.018;6.994;2023-05-29T13:29:26;17.70;;;4.63;;
4323;SDS011;2175;51.018;6.994;2023-05-29T13:31:51;11.40;;;4.30;;
4323;SDS011;2175;51.018;6.994;2023-05-29T13:34:17;11.70;;;4.50;;
4323;SDS011;2175;51.018;6.994;2023-05-29T13:36:42;12.60;;;4.87;;
4323;SDS011;2175;51.018;6.994;2023-05-29T13:39:09;10.40;;;4.80;;
4323;SDS011;2175;51.018;6.994;2023-05-29T13:41:35;14.13;;;5.50;;
4323;SDS011;2175;51.018;6.994;2023-05-29T13:44:01;13.07;;;4.80;;
4323;SDS011;2175;51.018;6.994;2023-05-29T13:46:27;11.83;;;4.20;;
4323;SDS011;2175;51.018;6.994;2023-05-29T13:48:52;10.83;;;4.40;;
4323;SDS011;2175;51.018;6.994;2023-05-29T13:51:18;13.30;;;4.50;;
4323;SDS011;2175;51.018;6.994;2023-05-29T13:53:44;19.07;;;5.07;;
4323;SDS011;2175;51.018;6.994;2023-05-29T13:56:09;12.10;;;4.40;;
4323;SDS011;2175;51.018;6.994;2023-05-29T13:58:36;25.70;;;5.53;;
4323;SDS011;2175;51.018;6.994;2023-05-29T14:01:02;16.83;;;4.60;;
4323;SDS011;2175;51.018;6.994;2023-05-29T14:03:28;11.47;;;3.93;;
4323;SDS011;2175;51.018;6.994;2023-05-29T14:05:54;14.20;;;4.57;;
4323;SDS011;2175;51.018;6.994;2023-05-29T14:08:20;9.37;;;4.27;;
4323;SDS011;2175;51.018;6.994;2023-05-29T14:10:46;10.97;;;4.33;;
4323;SDS011;2175;51.018;6.994;2023-05-29T14:13:17;20.90;;;4.47;;
4323;SDS011;2175;51.018;6.994;2023-05-29T14:16:16;8.23;;;4.03;;
4323;SDS011;2175;51.018;6.994;2023-05-29T14:19:15;14.40;;;4.57;;
4323;SDS011;2175;51.018;6.994;2023-05-29T14:22:04;12.63;;;4.77;;
4323;SDS011;2175;51.018;6.994;2023-05-29T14:24:33;13.33;;;5.10;;
4323;SDS011;2175;51.018;6.994;2023-05-29T14:27:01;13.37;;;4.40;;
4323;SDS011;2175;51.018;6.994;2023-05-29T14:29:27;10.60;;;4.80;;
4323;SDS011;2175;51.018;6.994;2023-05-29T14:31:52;13.23;;;4.97;;
4323;SDS011;2175;51.018;6.994;2023-05-29T14:34:18;10.80;;;3.93;;
4323;SDS011;2175;51.018;6.994;2023-05-29T14:36:49;10.40;;;4.73;;
4323;SDS011;2175;51.018;6.994;2023-05-29T14:39:15;11.93;;;4.57;;
4323;SDS011;2175;51.018;6.994;2023-05-29T14:41:40;13.00;;;4.90;;
4323;SDS011;2175;51.018;6.994;2023-05-29T14:44:06;10.83;;;4.67;;
4323;SDS011;2175;51.018;6.994;2023-05-29T14:46:33;12.37;;;5.37;;
4323;SDS011;2175;51.018;6.994;2023-05-29T14:49:58;11.93;;;4.50;;
4323;SDS011;2175;51.018;6.994;2023-05-29T14:52:34;8.63;;;4.73;;
4323;SDS011;2175;51.018;6.994;2023-05-29T14:55:12;16.57;;;4.70;;
4323;SDS011;2175;51.018;6.994;2023-05-29T14:57:40;12.20;;;4.00;;
4323;SDS011;2175;51.018;6.994;2023-05-29T15:00:06;12.13;;;4.60;;
4323;SDS011;2175;51.018;6.994;2023-05-29T15:02:32;10.70;;;4.60;;
4323;SDS011;2175;51.018;6.994;2023-05-29T15:04:57;11.70;;;5.00;;
4323;SDS011;2175;51.018;6.994;2023-05-29T15:07:23;12.60;;;4.57;;
4323;SDS011;2175;51.018;6.994;2023-05-29T15:09:49;15.53;;;5.03;;
4323;SDS011;2175;51.018;6.994;2023-05-29T15:12:14;16.50;;;4.43;;
4323;SDS011;2175;51.018;6.994;2023-05-29T15:14:40;11.97;;;4.30;;
4323;SDS011;2175;51.018;6.994;2023-05-29T15:17:05;10.50;;;4.23;;
4323;SDS011;2175;51.018;6.994;2023-05-29T15:19:31;11.77;;;4.67;;
4323;SDS011;2175;51.018;6.994;2023-05-29T15:21:57;8.50;;;4.13;;
4323;SDS011;2175;51.018;6.994;2023-05-29T15:24:23;30.50;;;5.03;;
4323;SDS011;2175;51.018;6.994;2023-05-29T15:26:48;13.90;;;4.80;;
4323;SDS011;2175;51.018;6.994;2023-05-29T15:29:15;10.53;;;4.80;;
4323;SDS011;2175;51.018;6.994;2023-05-29T15:31:40;17.90;;;5.00;;
4323;SDS011;2175;51.018;6.994;2023-05-29T15:34:06;17.20;;;5.60;;
4323;SDS011;2175;51.018;6.994;2023-05-29T15:36:32;9.93;;;4.67;;
4323;SDS011;2175;51.018;6.994;2023-05-29T15:38:58;9.97;;;4.77;;
4323;SDS011;2175;51.018;6.994;2023-05-29T15:41:23;13.20;;;4.60;;
4323;SDS011;2175;51.018;6.994;2023-05-29T15:43:54;12.83;;;4.50;;